Azamara Quest — V7DM6 — position and weather

sailwx.info

Track history (hours):
 
Tides and Currents Weather Stations Pressure Air Temp Water Temp Dewpoint Dewpoint Depression Visibility Wind Speed Wind Dir Waves Ship Positions

Azamara Quest

Last reported at 2020-Sep-27 14:00 UTC. Time now 2020-Sep-27 14:26 UTC.
Position N 59°41' E 028°23'.

Length 184 m; draft 11 m.

Type: Tanker. MMSI: 538005401.

Date/timePositionNaut miles runAvg speedWind from/ knotsBaromVisibWave heightAir tempDewpointWater temp
2020-Sep-27 14:00N 59°41' E 028°23'0 0.0
2020-Sep-27 13:00N 59°41' E 028°23'0 0.0
2020-Sep-27 09:52N 59°41' E 028°23'0 0.0
2020-Sep-27 07:24N 59°41' E 028°23'0 0.0
2020-Sep-27 02:54N 59°41' E 028°23'0 0.0
2020-Sep-26 23:00N 59°41' E 028°23'0 0.0
2020-Sep-26 22:00N 59°41' E 028°23'0 0.0
2020-Sep-26 19:00N 59°41' E 028°23'0 0.0
2020-Sep-26 14:54N 59°41' E 028°23'0 0.0
2020-Sep-26 10:57N 59°41' E 028°23'0 0.0
2020-Sep-26 09:30N 59°41' E 028°23'0 0.0
2020-Sep-26 08:00N 59°41' E 028°23'0 0.0
2020-Sep-26 07:27N 59°41' E 028°23'0 0.0
2020-Sep-26 07:00N 59°41' E 028°23'0 0.0
2020-Sep-26 06:30N 59°41' E 028°23'0 0.0
2020-Sep-26 05:30N 59°41' E 028°23'0 0.0
2020-Sep-26 00:21N 59°41' E 028°23'0 0.0
2020-Sep-25 23:24N 59°41' E 028°23'0 0.0
2020-Sep-25 20:27N 59°41' E 028°23'0 0.0
2020-Sep-25 19:27N 59°41' E 028°23'0 0.0
2020-Sep-25 14:27N 59°41' E 028°23'0 0.0
2020-Sep-25 14:00N 59°41' E 028°23'0 0.0
2020-Sep-25 13:30N 59°41' E 028°23'0 0.0
2020-Sep-25 08:24N 59°41' E 028°23'0 0.0
2020-Sep-25 07:27N 59°41' E 028°23'0 0.0
2020-Sep-25 07:00N 59°41' E 028°23'0 0.0
2020-Sep-25 05:57N 59°41' E 028°23'0 0.0
2020-Sep-25 03:57N 59°41' E 028°23'0 0.0
2020-Sep-25 00:30N 59°41' E 028°23'0 0.0
2020-Sep-24 16:54N 59°41' E 028°23'0 0.0
2020-Sep-24 15:54N 59°41' E 028°23'0 0.0
2020-Sep-24 15:24N 59°41' E 028°23'0 0.0
2020-Sep-24 13:57N 59°41' E 028°23'0 0.0
2020-Sep-24 07:30N 59°41' E 028°23'0 0.0
2020-Sep-24 06:30N 59°41' E 028°23'0 0.0
2020-Sep-24 05:21N 59°41' E 028°23'0 0.0
2020-Sep-24 03:00N 59°41' E 028°23'0 0.0
2020-Sep-24 02:30N 59°41' E 028°23'0 0.0
2020-Sep-24 02:00N 59°41' E 028°23'8 1.9
2020-Sep-23 21:28N 59°49' E 028°24'0 0.0
2020-Sep-23 19:58N 59°49' E 028°24'0 0.0
2020-Sep-23 19:16N 59°49' E 028°24'0 0.0
2020-Sep-23 18:58N 59°49' E 028°24'0 0.0
2020-Sep-23 14:55N 59°49' E 028°24'0 0.0
2020-Sep-23 13:55N 59°49' E 028°24'0 0.0
2020-Sep-23 11:52N 59°49' E 028°24'0 0.0
2020-Sep-23 10:55N 59°49' E 028°24'0 0.0
2020-Sep-23 10:25N 59°49' E 028°24'0 0.0
2020-Sep-23 01:58N 59°49' E 028°24'0 0.0
2020-Sep-22 22:58N 59°49' E 028°24'29 4.5
2020-Sep-22 16:31N 60°11' E 027°47'714.7
2020-Sep-22 16:01N 60°07' E 027°34'714.8
2020-Sep-22 15:30N 60°03' E 027°22'4412.7
2020-Sep-22 12:00N 59°53' E 025°55'1312.9
2020-Sep-22 10:58N 59°51' E 025°29'1313.2
2020-Sep-22 10:00N 59°48' E 025°04'612.8
2020-Sep-22 09:30N 59°46' E 024°52'2012.8
2020-Sep-22 07:56N 59°42' E 024°13'612.5
2020-Sep-22 07:28N 59°40' E 024°02'3213.0
2020-Sep-22 05:00N 59°30' E 023°02'7312.2
2020-Sep-21 23:00N 58°41' E 021°16'1312.6
2020-Sep-21 22:00N 58°31' E 021°02'612.7
2020-Sep-21 21:30N 58°26' E 020°55'7312.9
2020-Sep-21 15:51N 57°22' E 019°50'151 7.4
2020-Sep-20 19:30N 55°44' E 016°22'612.9
2020-Sep-20 19:00N 55°42' E 016°11'1313.1
2020-Sep-20 18:01N 55°39' E 015°48'713.1
2020-Sep-20 17:30N 55°37' E 015°37'613.0
2020-Sep-20 17:01N 55°35' E 015°26'612.9
2020-Sep-20 16:31N 55°33' E 015°16'612.8
2020-Sep-20 16:00N 55°30' E 015°05'1912.7
2020-Sep-20 14:30N 55°21' E 014°36'2411.7
2020-Sep-20 12:29N 55°10' E 013°59'612.9
2020-Sep-20 12:00N 55°10' E 013°48'612.8
2020-Sep-20 11:30N 55°11' E 013°37'1312.4
2020-Sep-20 10:28N 55°12' E 013°15'2311.6
2020-Sep-20 08:30N 55°21' E 012°38'1610.5
2020-Sep-20 07:00N 55°35' E 012°50'9 9.1
2020-Sep-20 06:00N 55°44' E 012°51'6611.0
2020-Sep-19 23:58N 56°46' E 012°07'3610.3
2020-Sep-19 20:30N 57°19' E 011°42'1610.5
2020-Sep-19 19:00N 57°30' E 011°23'1610.6
2020-Sep-19 17:30N 57°42' E 011°02'1010.0
2020-Sep-19 16:30N 57°48' E 010°48'2510.1
2020-Sep-19 14:00N 57°48' E 010°01'3110.3
2020-Sep-19 11:00N 57°36' E 009°07'1110.5
2020-Sep-19 10:00N 57°31' E 008°50'2710.6
2020-Sep-19 07:25N 57°12' E 008°14'410.5
2020-Sep-19 07:00N 57°08' E 008°10'2010.0
2020-Sep-19 04:59N 56°51' E 007°50'510.0
2020-Sep-19 04:30N 56°47' E 007°45'2010.1
2020-Sep-19 02:29N 56°30' E 007°25'1110.2
2020-Sep-19 01:25N 56°21' E 007°14'2010.3
2020-Sep-18 23:30N 56°04' E 006°54'1010.2
2020-Sep-18 22:30N 55°56' E 006°44'2610.5
2020-Sep-18 19:59N 55°34' E 006°18'1110.7
2020-Sep-18 18:59N 55°25' E 006°07'1110.8
2020-Sep-18 18:00N 55°16' E 005°57'3210.7
2020-Sep-18 15:00N 54°50' E 005°26'1610.5
2020-Sep-18 13:30N 54°37' E 005°10'3210.2
2020-Sep-18 10:23N 54°09' E 004°43'2910.0
2020-Sep-18 07:30N 53°44' E 004°18'2710.5
2020-Sep-18 04:55N 53°27' E 003°43'2311.5
2020-Sep-18 02:58N 53°07' E 003°27'1711.6
2020-Sep-18 01:30N 52°51' E 003°17'611.1
2020-Sep-18 01:00N 52°46' E 003°13'50 9.1
2020-Sep-17 19:30N 52°03' E 003°54'19 7.6
2020-Sep-17 17:00N 51°53' E 004°21'0 0.0
2020-Sep-17 15:30N 51°53' E 004°21'0 0.0
2020-Sep-17 14:30N 51°53' E 004°21'  
Track history (hours):
 
Tides and Currents Weather Stations Pressure Air Temp Water Temp Dewpoint Dewpoint Depression Visibility Wind Speed Wind Dir Waves Ship Positions

Azamara Quest

Last reported at 2020-Sep-27 14:00 UTC. Time now 2020-Sep-27 14:26 UTC.
Position N 59°41' E 028°23'.

Length 184 m; draft 11 m.

Type: Tanker. MMSI: 538005401.

Date/timePositionNaut miles runAvg speedWind from/ knotsBaromVisibWave heightAir tempDewpointWater temp
2020-Sep-27 14:00N 59°41' E 028°23'0 0.0
2020-Sep-27 13:00N 59°41' E 028°23'0 0.0
2020-Sep-27 09:52N 59°41' E 028°23'0 0.0
2020-Sep-27 07:24N 59°41' E 028°23'0 0.0
2020-Sep-27 02:54N 59°41' E 028°23'0 0.0
2020-Sep-26 23:00N 59°41' E 028°23'0 0.0
2020-Sep-26 22:00N 59°41' E 028°23'0 0.0
2020-Sep-26 19:00N 59°41' E 028°23'0 0.0
2020-Sep-26 14:54N 59°41' E 028°23'0 0.0
2020-Sep-26 10:57N 59°41' E 028°23'0 0.0
2020-Sep-26 09:30N 59°41' E 028°23'0 0.0
2020-Sep-26 08:00N 59°41' E 028°23'0 0.0
2020-Sep-26 07:27N 59°41' E 028°23'0 0.0
2020-Sep-26 07:00N 59°41' E 028°23'0 0.0
2020-Sep-26 06:30N 59°41' E 028°23'0 0.0
2020-Sep-26 05:30N 59°41' E 028°23'0 0.0
2020-Sep-26 00:21N 59°41' E 028°23'0 0.0
2020-Sep-25 23:24N 59°41' E 028°23'0 0.0
2020-Sep-25 20:27N 59°41' E 028°23'0 0.0
2020-Sep-25 19:27N 59°41' E 028°23'0 0.0
2020-Sep-25 14:27N 59°41' E 028°23'0 0.0
2020-Sep-25 14:00N 59°41' E 028°23'0 0.0
2020-Sep-25 13:30N 59°41' E 028°23'0 0.0
2020-Sep-25 08:24N 59°41' E 028°23'0 0.0
2020-Sep-25 07:27N 59°41' E 028°23'0 0.0
2020-Sep-25 07:00N 59°41' E 028°23'0 0.0
2020-Sep-25 05:57N 59°41' E 028°23'0 0.0
2020-Sep-25 03:57N 59°41' E 028°23'0 0.0
2020-Sep-25 00:30N 59°41' E 028°23'0 0.0
2020-Sep-24 16:54N 59°41' E 028°23'0 0.0
2020-Sep-24 15:54N 59°41' E 028°23'0 0.0
2020-Sep-24 15:24N 59°41' E 028°23'0 0.0
2020-Sep-24 13:57N 59°41' E 028°23'0 0.0
2020-Sep-24 07:30N 59°41' E 028°23'0 0.0
2020-Sep-24 06:30N 59°41' E 028°23'0 0.0
2020-Sep-24 05:21N 59°41' E 028°23'0 0.0
2020-Sep-24 03:00N 59°41' E 028°23'0 0.0
2020-Sep-24 02:30N 59°41' E 028°23'0 0.0
2020-Sep-24 02:00N 59°41' E 028°23'8 1.9
2020-Sep-23 21:28N 59°49' E 028°24'0 0.0
2020-Sep-23 19:58N 59°49' E 028°24'0 0.0
2020-Sep-23 19:16N 59°49' E 028°24'0 0.0
2020-Sep-23 18:58N 59°49' E 028°24'0 0.0
2020-Sep-23 14:55N 59°49' E 028°24'0 0.0
2020-Sep-23 13:55N 59°49' E 028°24'0 0.0
2020-Sep-23 11:52N 59°49' E 028°24'0 0.0
2020-Sep-23 10:55N 59°49' E 028°24'0 0.0
2020-Sep-23 10:25N 59°49' E 028°24'0 0.0
2020-Sep-23 01:58N 59°49' E 028°24'0 0.0
2020-Sep-22 22:58N 59°49' E 028°24'29 4.5
2020-Sep-22 16:31N 60°11' E 027°47'714.7
2020-Sep-22 16:01N 60°07' E 027°34'714.8
2020-Sep-22 15:30N 60°03' E 027°22'4412.7
2020-Sep-22 12:00N 59°53' E 025°55'1312.9
2020-Sep-22 10:58N 59°51' E 025°29'1313.2
2020-Sep-22 10:00N 59°48' E 025°04'612.8
2020-Sep-22 09:30N 59°46' E 024°52'2012.8
2020-Sep-22 07:56N 59°42' E 024°13'612.5
2020-Sep-22 07:28N 59°40' E 024°02'3213.0
2020-Sep-22 05:00N 59°30' E 023°02'7312.2
2020-Sep-21 23:00N 58°41' E 021°16'1312.6
2020-Sep-21 22:00N 58°31' E 021°02'612.7
2020-Sep-21 21:30N 58°26' E 020°55'7312.9
2020-Sep-21 15:51N 57°22' E 019°50'151 7.4
2020-Sep-20 19:30N 55°44' E 016°22'612.9
2020-Sep-20 19:00N 55°42' E 016°11'1313.1
2020-Sep-20 18:01N 55°39' E 015°48'713.1
2020-Sep-20 17:30N 55°37' E 015°37'613.0
2020-Sep-20 17:01N 55°35' E 015°26'612.9
2020-Sep-20 16:31N 55°33' E 015°16'612.8
2020-Sep-20 16:00N 55°30' E 015°05'1912.7
2020-Sep-20 14:30N 55°21' E 014°36'2411.7
2020-Sep-20 12:29N 55°10' E 013°59'612.9
2020-Sep-20 12:00N 55°10' E 013°48'612.8
2020-Sep-20 11:30N 55°11' E 013°37'1312.4
2020-Sep-20 10:28N 55°12' E 013°15'2311.6
2020-Sep-20 08:30N 55°21' E 012°38'1610.5
2020-Sep-20 07:00N 55°35' E 012°50'9 9.1
2020-Sep-20 06:00N 55°44' E 012°51'6611.0
2020-Sep-19 23:58N 56°46' E 012°07'3610.3
2020-Sep-19 20:30N 57°19' E 011°42'1610.5
2020-Sep-19 19:00N 57°30' E 011°23'1610.6
2020-Sep-19 17:30N 57°42' E 011°02'1010.0
2020-Sep-19 16:30N 57°48' E 010°48'2510.1
2020-Sep-19 14:00N 57°48' E 010°01'3110.3
2020-Sep-19 11:00N 57°36' E 009°07'1110.5
2020-Sep-19 10:00N 57°31' E 008°50'2710.6
2020-Sep-19 07:25N 57°12' E 008°14'410.5
2020-Sep-19 07:00N 57°08' E 008°10'2010.0
2020-Sep-19 04:59N 56°51' E 007°50'510.0
2020-Sep-19 04:30N 56°47' E 007°45'2010.1
2020-Sep-19 02:29N 56°30' E 007°25'1110.2
2020-Sep-19 01:25N 56°21' E 007°14'2010.3
2020-Sep-18 23:30N 56°04' E 006°54'1010.2
2020-Sep-18 22:30N 55°56' E 006°44'2610.5
2020-Sep-18 19:59N 55°34' E 006°18'1110.7
2020-Sep-18 18:59N 55°25' E 006°07'1110.8
2020-Sep-18 18:00N 55°16' E 005°57'3210.7
2020-Sep-18 15:00N 54°50' E 005°26'1610.5
2020-Sep-18 13:30N 54°37' E 005°10'3210.2
2020-Sep-18 10:23N 54°09' E 004°43'2910.0
2020-Sep-18 07:30N 53°44' E 004°18'2710.5
2020-Sep-18 04:55N 53°27' E 003°43'2311.5
2020-Sep-18 02:58N 53°07' E 003°27'1711.6
2020-Sep-18 01:30N 52°51' E 003°17'611.1
2020-Sep-18 01:00N 52°46' E 003°13'50 9.1
2020-Sep-17 19:30N 52°03' E 003°54'19 7.6
2020-Sep-17 17:00N 51°53' E 004°21'0 0.0
2020-Sep-17 15:30N 51°53' E 004°21'0 0.0
2020-Sep-17 14:30N 51°53' E 004°21'  

Dump ship's entire track history